Time;durP1;ratioP1;P1;durP2;ratioP2;P2;SDS_P1;SDS_P2;PMS_P1;PMS_P2;Temp;Humidity;BMP_temperature;BMP_pressure;BME280_temperature;BME280_humidity;BME280_pressure;Samples;Min_cycle;Max_cycle;Signal;HPM_P1;HPM_P2
2021/12/24 00:03:40;;;;;;;56.42;27.10;;;;;;;-0.42;100.00;98864.82;3465490;84;97916;-89
2021/12/24 00:08:44;;;;;;;61.47;29.23;;;;;;;-0.39;100.00;98861.42;3458906;83;99388;-88
2021/12/24 00:13:47;;;;;;;60.75;28.35;;;;;;;-0.34;100.00;98859.06;3442473;84;99483;-87
2021/12/24 00:18:54;;;;;;;53.63;28.53;;;;;;;-0.32;100.00;98850.03;3371311;86;99179;-87
2021/12/24 00:39:36;;;;;;;51.15;27.67;;;;;;;-0.17;100.00;98832.50;3393184;85;98886;-87
2021/12/24 00:44:35;;;;;;;55.23;27.23;;;;;;;-0.13;100.00;98841.50;3374714;85;99320;-86
2021/12/24 00:49:36;;;;;;;49.17;25.60;;;;;;;-0.10;100.00;98825.95;3449368;84;99065;-87
2021/12/24 00:59:57;;;;;;;54.58;27.17;;;;;;;-0.02;100.00;98796.61;3450864;84;99183;-86
2021/12/24 01:04:58;;;;;;;52.03;25.57;;;;;;;0.01;100.00;98799.41;3501743;82;99477;-86
2021/12/24 01:09:59;;;;;;;48.57;24.30;;;;;;;0.06;100.00;98805.14;3487811;83;98659;-86
2021/12/24 01:15:00;;;;;;;46.83;24.37;;;;;;;0.09;100.00;98800.38;3410749;85;99063;-86
2021/12/24 01:20:12;;;;;;;43.80;22.87;;;;;;;0.15;100.00;98797.63;3428405;84;99377;-86
2021/12/24 01:25:20;;;;;;;47.48;23.22;;;;;;;0.19;100.00;98797.96;3410636;85;98893;-86
2021/12/24 01:41:03;;;;;;;42.53;21.93;;;;;;;0.30;100.00;98781.98;3507754;82;98878;-85
2021/12/24 01:45:50;;;;;;;43.17;21.68;;;;;;;0.36;100.00;98763.00;3515378;82;97807;-86
2021/12/24 01:50:53;;;;;;;36.98;19.65;;;;;;;0.39;100.00;98760.38;3467349;83;99174;-86
2021/12/24 01:55:54;;;;;;;38.73;19.87;;;;;;;0.44;100.00;98767.46;3444692;84;98974;-86
2021/12/24 02:00:57;;;;;;;39.23;20.77;;;;;;;0.46;100.00;98749.74;3424128;84;98820;-86
2021/12/24 02:05:58;;;;;;;35.13;19.30;;;;;;;0.49;100.00;98738.20;3456028;84;98896;-86
2021/12/24 02:10:59;;;;;;;38.87;20.67;;;;;;;0.53;100.00;98756.67;3457804;84;98943;-87
2021/12/24 02:16:16;;;;;;;37.20;19.07;;;;;;;0.57;100.00;98747.27;3454217;84;35053;-87
2021/12/24 02:31:44;;;;;;;33.57;18.33;;;;;;;0.64;100.00;98748.22;3452449;83;99234;-87
2021/12/24 02:36:45;;;;;;;37.17;19.57;;;;;;;0.66;100.00;98741.11;3456142;83;99271;-87
2021/12/24 02:41:46;;;;;;;35.33;18.97;;;;;;;0.67;100.00;98740.73;3450376;84;99525;-87
2021/12/24 02:47:09;;;;;;;32.87;17.30;;;;;;;0.71;100.00;98721.89;3477295;83;98867;-87
2021/12/24 02:57:16;;;;;;;31.27;16.50;;;;;;;0.74;100.00;98723.31;3467574;84;98758;-87
2021/12/24 03:02:17;;;;;;;28.17;16.20;;;;;;;0.77;100.00;98719.89;3467594;83;99081;-88
2021/12/24 03:07:18;;;;;;;30.50;16.63;;;;;;;0.79;100.00;98715.48;3469275;84;98914;-88
2021/12/24 03:12:19;;;;;;;30.83;15.37;;;;;;;0.80;100.00;98706.22;3459298;83;99023;-88
2021/12/24 03:17:23;;;;;;;28.20;15.13;;;;;;;0.83;100.00;98704.17;3475403;84;99547;-88
2021/12/24 03:27:36;;;;;;;25.33;14.73;;;;;;;0.89;100.00;98702.16;3489023;83;99134;-88
2021/12/24 03:32:37;;;;;;;27.53;15.20;;;;;;;0.90;100.00;98698.89;3486160;83;99188;-88
2021/12/24 03:37:37;;;;;;;27.25;15.20;;;;;;;0.91;100.00;98681.50;3503018;83;98828;-87
2021/12/24 03:42:41;;;;;;;25.90;16.03;;;;;;;0.92;100.00;98696.61;3470250;83;98975;-87
2021/12/24 03:47:42;;;;;;;25.77;14.57;;;;;;;0.94;100.00;98691.64;3498152;83;98890;-87
2021/12/24 03:57:55;;;;;;;29.30;15.77;;;;;;;0.95;100.00;98697.27;3397132;83;98850;-87
2021/12/24 04:02:56;;;;;;;28.93;15.37;;;;;;;0.95;100.00;98703.47;3484637;83;98694;-87
2021/12/24 04:07:57;;;;;;;24.70;13.93;;;;;;;0.93;100.00;98694.90;3486693;83;100289;-86
2021/12/24 04:12:57;;;;;;;26.40;14.83;;;;;;;0.93;100.00;98685.42;3502176;82;99058;-87
2021/12/24 04:17:58;;;;;;;27.95;15.03;;;;;;;0.95;100.00;98679.66;3507597;83;98992;-87
2021/12/24 04:28:18;;;;;;;30.62;16.35;;;;;;;0.96;100.00;98687.44;3513234;82;99051;-88
2021/12/24 04:33:29;;;;;;;29.40;15.83;;;;;;;0.97;100.00;98689.55;3509633;82;98001;-88
2021/12/24 04:38:32;;;;;;;27.67;13.90;;;;;;;0.98;100.00;98680.28;3488520;82;98899;-88
2021/12/24 05:04:35;;;;;;;28.57;15.38;;;;;;;0.94;100.00;98684.28;3422560;84;29845;-88
2021/12/24 05:09:33;;;;;;;25.57;13.87;;;;;;;0.95;100.00;98679.66;3421021;84;98709;-89
2021/12/24 05:14:33;;;;;;;28.50;14.17;;;;;;;0.95;100.00;98671.53;3407994;85;98780;-89
2021/12/24 05:24:53;;;;;;;29.95;14.07;;;;;;;0.95;100.00;98672.33;3423488;86;99185;-88
2021/12/24 05:29:55;;;;;;;26.13;13.77;;;;;;;0.97;100.00;98655.70;3416812;84;99205;-88
2021/12/24 05:34:56;;;;;;;27.37;14.77;;;;;;;0.97;100.00;98653.79;3405875;86;35057;-89
2021/12/24 05:39:57;;;;;;;26.10;14.00;;;;;;;0.96;100.00;98644.10;3427797;84;98972;-88
2021/12/24 05:45:05;;;;;;;28.03;14.63;;;;;;;0.97;100.00;98634.84;3474773;83;98707;-88
2021/12/24 05:50:08;;;;;;;27.40;15.25;;;;;;;0.99;100.00;98640.67;3435871;84;98959;-88
2021/12/24 05:55:10;;;;;;;27.73;14.67;;;;;;;0.99;100.00;98615.53;3465745;84;99223;-88
2021/12/24 06:00:12;;;;;;;28.00;15.48;;;;;;;0.98;100.00;98612.02;3461160;83;98601;-88
2021/12/24 06:05:13;;;;;;;27.00;14.80;;;;;;;0.99;100.00;98608.16;3440322;84;98953;-87
2021/12/24 06:10:14;;;;;;;27.47;15.03;;;;;;;1.00;100.00;98619.80;3436333;84;98870;-87
2021/12/24 06:15:20;;;;;;;28.37;14.70;;;;;;;1.01;100.00;98626.77;3465664;84;99075;-87
2021/12/24 06:20:19;;;;;;;27.65;13.58;;;;;;;1.02;100.00;98639.17;3386604;85;99375;-88
2021/12/24 06:25:20;;;;;;;26.67;14.27;;;;;;;1.01;100.00;98635.70;3393003;85;99448;-89
2021/12/24 06:30:22;;;;;;;25.03;12.70;;;;;;;1.01;100.00;98651.15;3447862;84;98865;-89
2021/12/24 06:35:24;;;;;;;25.73;12.93;;;;;;;0.99;100.00;98640.67;3394522;85;99254;-89
2021/12/24 06:40:26;;;;;;;24.17;12.83;;;;;;;0.98;100.00;98654.00;3445663;83;98542;-88
2021/12/24 06:45:28;;;;;;;25.20;12.90;;;;;;;0.98;100.00;98639.11;3392772;85;98778;-87
2021/12/24 06:50:30;;;;;;;26.07;12.73;;;;;;;1.00;100.00;98646.30;3458671;84;98755;-87
2021/12/24 06:55:30;;;;;;;25.97;13.83;;;;;;;1.00;100.00;98643.58;3471662;83;98865;-87
2021/12/24 07:00:32;;;;;;;23.47;13.25;;;;;;;1.02;100.00;98660.84;3463894;83;99057;-87
2021/12/24 07:05:33;;;;;;;25.23;12.88;;;;;;;1.01;100.00;98653.30;3527518;83;99494;-87
2021/12/24 07:10:34;;;;;;;26.47;12.27;;;;;;;1.00;100.00;98665.25;3495961;83;121937;-87
2021/12/24 07:15:35;;;;;;;25.57;12.83;;;;;;;1.01;100.00;98664.13;3531963;82;99211;-86
2021/12/24 07:20:36;;;;;;;24.73;13.10;;;;;;;1.02;100.00;98669.76;3521512;83;99270;-86
2021/12/24 07:25:37;;;;;;;29.33;14.13;;;;;;;1.05;100.00;98658.78;3511707;83;99278;-87
2021/12/24 07:30:38;;;;;;;32.67;17.60;;;;;;;1.06;100.00;98659.79;3502478;83;98792;-86
2021/12/24 07:35:39;;;;;;;32.53;17.47;;;;;;;1.06;100.00;98658.99;3507737;82;98947;-88
2021/12/24 07:40:42;;;;;;;28.13;15.63;;;;;;;1.07;100.00;98658.64;3473654;83;98701;-87
2021/12/24 07:45:45;;;;;;;27.47;15.50;;;;;;;1.07;100.00;98647.81;3472686;84;98714;-86
2021/12/24 07:55:48;;;;;;;27.48;14.95;;;;;;;1.12;100.00;98635.89;3511805;82;99047;-86
2021/12/24 08:00:50;;;;;;;33.57;16.80;;;;;;;1.14;100.00;98626.83;3518390;82;99471;-83
2021/12/24 08:05:51;;;;;;;24.53;13.70;;;;;;;1.16;100.00;98630.74;3516556;83;99270;-85
2021/12/24 08:10:52;;;;;;;26.23;13.87;;;;;;;1.18;100.00;98619.55;3510727;82;98518;-85
2021/12/24 08:15:54;;;;;;;24.97;13.00;;;;;;;1.20;100.00;98622.12;3511291;83;98981;-86
2021/12/24 08:20:55;;;;;;;24.10;12.47;;;;;;;1.22;100.00;98606.87;3478718;83;98964;-86
2021/12/24 08:25:58;;;;;;;26.00;12.63;;;;;;;1.25;100.00;98612.91;3470715;84;99332;-86
2021/12/24 08:30:59;;;;;;;25.87;13.10;;;;;;;1.26;100.00;98613.91;3469396;82;99168;-86
2021/12/24 08:36:04;;;;;;;28.37;14.00;;;;;;;1.32;100.00;98613.05;3470679;84;99386;-86
2021/12/24 08:41:05;;;;;;;29.90;13.13;;;;;;;1.35;100.00;98605.55;3471190;84;98906;-85
2021/12/24 08:46:06;;;;;;;24.73;13.23;;;;;;;1.36;100.00;98605.19;3462488;84;34900;-85
2021/12/24 08:51:07;;;;;;;25.73;11.73;;;;;;;1.37;100.00;98605.40;3461046;83;99607;-85
2021/12/24 08:56:08;;;;;;;22.77;11.10;;;;;;;1.38;100.00;98594.00;3487010;82;99398;-83
2021/12/24 09:01:09;;;;;;;21.40;11.03;;;;;;;1.39;100.00;98579.30;3488370;82;99208;-84
2021/12/24 09:06:11;;;;;;;27.13;12.80;;;;;;;1.40;100.00;98588.99;3483828;83;99039;-84
2021/12/24 09:11:12;;;;;;;28.57;14.20;;;;;;;1.41;100.00;98574.30;3493103;82;98831;-82
2021/12/24 09:16:13;;;;;;;27.57;15.90;;;;;;;1.45;100.00;98557.53;3460752;84;35354;-83
2021/12/24 09:21:16;;;;;;;25.07;13.67;;;;;;;1.49;100.00;98557.79;3453904;84;98734;-82
2021/12/24 09:26:23;;;;;;;27.17;14.27;;;;;;;1.52;100.00;98563.85;3453817;84;98930;-82
2021/12/24 09:31:19;;;;;;;24.53;12.53;;;;;;;1.52;100.00;98557.64;3446514;83;99089;-82
2021/12/24 09:36:26;;;;;;;22.10;11.17;;;;;;;1.50;100.00;98553.95;3440523;84;98835;-81
2021/12/24 09:41:27;;;;;;;23.45;12.75;;;;;;;1.50;100.00;98544.47;3474029;83;99192;-81
2021/12/24 09:46:30;;;;;;;25.20;12.83;;;;;;;1.47;100.00;98532.98;3480528;83;35489;-82
2021/12/24 09:51:37;;;;;;;22.17;11.27;;;;;;;1.44;100.00;98521.53;3457635;84;99131;-81
2021/12/24 09:56:38;;;;;;;21.50;10.45;;;;;;;1.41;100.00;98530.37;3483709;83;98770;-81
2021/12/24 10:01:46;;;;;;;22.93;12.00;;;;;;;1.42;100.00;98513.55;3468158;83;98876;-81
2021/12/24 10:07:00;;;;;;;26.43;13.60;;;;;;;1.43;100.00;98489.37;3470334;83;99296;-81
2021/12/24 10:12:06;;;;;;;27.80;13.00;;;;;;;1.42;100.00;98490.52;3457451;83;98862;-82
2021/12/24 10:17:24;;;;;;;34.88;16.17;;;;;;;1.40;100.00;98489.52;3466685;84;98805;-83
2021/12/24 10:22:25;;;;;;;36.58;17.50;;;;;;;1.41;100.00;98485.66;3454250;83;98521;-82
2021/12/24 10:27:32;;;;;;;33.23;16.43;;;;;;;1.42;100.00;98489.16;3483679;83;99168;-81
2021/12/24 10:32:39;;;;;;;35.77;17.20;;;;;;;1.41;100.00;98495.70;3481732;83;99162;-81
2021/12/24 10:37:39;;;;;;;;;;;;;;;1.43;100.00;98485.30;3478660;84;99080;-81
2021/12/24 10:42:42;;;;;;;53.90;27.43;;;;;;;1.44;100.00;98469.24;3511685;82;84648;-81
2021/12/24 10:47:43;;;;;;;37.63;21.10;;;;;;;1.47;100.00;98465.23;3502176;82;98896;-84
2021/12/24 10:57:56;;;;;;;27.77;14.03;;;;;;;1.50;100.00;98482.69;3443009;84;98889;-85
2021/12/24 11:03:01;;;;;;;25.70;14.53;;;;;;;1.53;100.00;98467.83;3480205;83;99146;-84
2021/12/24 11:08:11;;;;;;;29.65;15.55;;;;;;;1.56;100.00;98473.10;3464755;84;99351;-87
2021/12/24 11:13:28;;;;;;;28.33;13.83;;;;;;;1.57;100.00;98482.23;3471398;83;98845;-87
2021/12/24 11:18:29;;;;;;;24.15;11.95;;;;;;;1.58;100.00;98481.08;3443687;83;99015;-87
2021/12/24 11:23:34;;;;;;;28.25;13.83;;;;;;;1.60;100.00;98467.93;3457304;84;99481;-87
2021/12/24 11:28:36;;;;;;;26.83;13.97;;;;;;;1.63;100.00;98471.84;3462094;83;98596;-86
2021/12/24 11:33:42;;;;;;;24.23;11.80;;;;;;;1.65;100.00;98478.47;3518304;82;98946;-86
2021/12/24 11:38:46;;;;;;;31.93;13.53;;;;;;;1.65;100.00;98477.11;3466909;82;99200;-87
2021/12/24 11:43:50;;;;;;;33.50;14.40;;;;;;;1.67;100.00;98467.27;3454685;84;99366;-87
2021/12/24 11:48:54;;;;;;;44.03;18.47;;;;;;;1.71;100.00;98469.45;3451421;84;99356;-88
2021/12/24 11:54:05;;;;;;;39.73;19.67;;;;;;;1.73;100.00;98475.28;3463375;83;99545;-87
2021/12/24 11:59:05;;;;;;;40.83;20.47;;;;;;;1.75;100.00;98475.72;3477537;82;99008;-88
2021/12/24 12:04:18;;;;;;;43.23;20.93;;;;;;;1.76;100.00;98484.82;3464901;84;34834;-89
2021/12/24 12:09:19;;;;;;;61.42;25.68;;;;;;;1.76;100.00;98482.11;3477451;82;98751;-89
2021/12/24 12:14:25;;;;;;;46.80;22.33;;;;;;;1.78;100.00;98470.91;3522771;82;98842;-90
2021/12/24 12:19:46;;;;;;;40.90;18.93;;;;;;;1.82;100.00;98483.39;3519271;82;98850;-91
2021/12/24 12:25:00;;;;;;;35.17;15.15;;;;;;;1.81;100.00;98492.64;3467870;84;99010;-92
2021/12/24 12:30:23;;;;;;;39.40;15.90;;;;;;;1.79;100.00;98488.73;3460843;83;98999;-91
2021/12/24 12:35:46;;;;;;;36.97;19.93;;;;;;;1.81;100.00;98472.90;3468022;84;99350;-91
2021/12/24 12:40:47;;;;;;;47.08;24.12;;;;;;;1.81;100.00;98480.44;3460085;83;98913;-94
2021/12/24 12:45:53;;;;;;;46.50;21.93;;;;;;;1.75;100.00;98460.80;3463604;84;98755;-96
2021/12/24 12:50:58;;;;;;;38.38;18.35;;;;;;;1.74;100.00;98447.81;3438922;83;98519;-95
2021/12/24 12:56:27;;;;;;;32.08;16.62;;;;;;;1.75;100.00;98439.12;3459569;84;98872;-96
2021/12/24 13:01:28;;;;;;;29.12;13.93;;;;;;;1.77;100.00;98457.14;3452888;84;98264;-96
2021/12/24 13:06:43;;;;;;;24.10;12.57;;;;;;;1.79;100.00;98454.84;3463257;83;98845;-96
2021/12/24 13:11:49;;;;;;;25.23;13.68;;;;;;;1.81;100.00;98466.12;3450101;84;98606;-96
2021/12/24 13:17:15;;;;;;;30.68;16.02;;;;;;;1.79;100.00;98456.98;3458065;84;30667;-96
2021/12/24 13:27:30;;;;;;;18.70;8.90;;;;;;;1.71;100.00;98489.80;3454272;83;98910;-94
2021/12/24 13:32:31;;;;;;;23.80;14.07;;;;;;;1.64;100.00;98472.84;3454034;84;98769;-95
2021/12/24 13:37:34;;;;;;;17.73;9.00;;;;;;;1.63;100.00;98478.06;3443641;84;99366;-93
2021/12/24 13:42:50;;;;;;;17.37;10.30;;;;;;;1.60;100.00;98479.36;3436459;84;98817;-91
2021/12/24 13:48:01;;;;;;;15.18;8.83;;;;;;;1.58;100.00;98497.34;3453995;83;99065;-93
2021/12/24 13:58:25;;;;;;;24.02;11.12;;;;;;;1.48;100.00;98499.31;3438394;84;98612;-92
2021/12/24 14:03:33;;;;;;;14.87;7.13;;;;;;;1.45;100.00;98520.94;3438887;84;98961;-90
2021/12/24 14:08:37;;;;;;;10.63;5.10;;;;;;;1.40;100.00;98540.21;3445785;83;98802;-92
2021/12/24 14:13:50;;;;;;;11.57;5.50;;;;;;;1.35;100.00;98542.66;3426830;84;99129;-91
2021/12/24 14:18:49;;;;;;;13.25;6.83;;;;;;;1.28;100.00;98549.88;3466702;84;98665;-91
2021/12/24 14:24:13;;;;;;;12.00;5.97;;;;;;;1.24;100.00;98540.91;3448297;84;99099;-92
2021/12/24 14:29:29;;;;;;;28.42;14.20;;;;;;;1.21;100.00;98541.05;3436075;84;98598;-91
2021/12/24 14:34:44;;;;;;;12.20;6.90;;;;;;;1.19;100.00;98547.41;3439646;84;99016;-94
2021/12/24 14:39:52;;;;;;;15.23;8.20;;;;;;;1.17;100.00;98548.36;3445088;84;98990;-91
2021/12/24 14:45:13;;;;;;;15.07;8.60;;;;;;;1.14;100.00;98558.55;3452566;83;98955;-92
2021/12/24 14:50:14;;;;;;;17.23;9.43;;;;;;;1.12;100.00;98570.32;3438437;84;99131;-87
2021/12/24 14:55:21;;;;;;;21.07;11.50;;;;;;;1.09;100.00;98572.38;3399552;85;98721;-89
2021/12/24 15:00:33;;;;;;;25.12;14.15;;;;;;;1.07;100.00;98575.23;3448092;84;99203;-89
2021/12/24 15:05:46;;;;;;;23.67;14.90;;;;;;;1.06;100.00;98585.86;3363700;86;99021;-89
2021/12/24 15:11:09;;;;;;;26.57;13.90;;;;;;;1.04;100.00;98594.34;3385705;85;99241;-87
2021/12/24 15:16:16;;;;;;;25.13;14.30;;;;;;;1.01;100.00;98586.15;3426850;84;99024;-88
2021/12/24 15:21:18;;;;;;;28.50;15.33;;;;;;;1.00;100.00;98586.71;3407060;83;99045;-87
2021/12/24 15:26:20;;;;;;;31.27;17.07;;;;;;;1.01;100.00;98610.52;3414461;83;99328;-87
2021/12/24 15:31:24;;;;;;;42.03;21.55;;;;;;;0.99;100.00;98605.46;3422849;84;99271;-87
2021/12/24 15:36:25;;;;;;;28.30;15.67;;;;;;;0.98;100.00;98617.44;3445381;84;98924;-86
2021/12/24 15:41:26;;;;;;;29.07;14.60;;;;;;;0.96;100.00;98629.21;3432968;84;98602;-87
2021/12/24 15:46:28;;;;;;;28.80;15.00;;;;;;;0.96;100.00;98624.35;3431952;84;98629;-89
2021/12/24 15:51:28;;;;;;;26.83;14.00;;;;;;;0.92;100.00;98628.34;3430654;84;98729;-86
2021/12/24 15:56:29;;;;;;;30.50;16.17;;;;;;;0.92;100.00;98639.18;3477195;83;98889;-85
2021/12/24 16:01:30;;;;;;;28.27;14.67;;;;;;;0.92;100.00;98643.80;3486776;83;98851;-86
2021/12/24 16:06:31;;;;;;;28.77;15.93;;;;;;;0.89;100.00;98656.12;3493778;83;98809;-86
2021/12/24 16:11:32;;;;;;;32.13;17.00;;;;;;;0.90;100.00;98669.11;3480962;83;98995;-86
2021/12/24 16:16:33;;;;;;;36.27;18.90;;;;;;;0.87;100.00;98667.09;3499884;83;35230;-87
2021/12/24 16:21:34;;;;;;;36.10;20.43;;;;;;;0.87;100.00;98663.03;3490054;82;99028;-87
2021/12/24 16:26:35;;;;;;;31.48;18.20;;;;;;;0.84;100.00;98671.88;3492137;83;98947;-86
2021/12/24 16:31:36;;;;;;;30.72;15.18;;;;;;;0.82;100.00;98672.82;3469224;83;99235;-86
2021/12/24 16:36:38;;;;;;;27.83;15.47;;;;;;;0.84;100.00;98679.45;3495630;83;98872;-89
2021/12/24 16:41:42;;;;;;;36.17;20.27;;;;;;;0.84;100.00;98690.84;3488020;83;98842;-86
2021/12/24 16:46:42;;;;;;;33.08;16.90;;;;;;;0.83;100.00;98695.45;3491779;82;29166;-86
2021/12/24 16:51:46;;;;;;;27.63;15.50;;;;;;;0.81;100.00;98697.75;3457514;84;99100;-87
2021/12/24 16:56:45;;;;;;;27.22;14.50;;;;;;;0.82;100.00;98715.55;3435580;84;98822;-85
2021/12/24 17:01:51;;;;;;;27.57;13.63;;;;;;;0.81;100.00;98718.61;3428534;84;98928;-86
2021/12/24 17:06:52;;;;;;;21.07;11.55;;;;;;;0.81;100.00;98728.08;3419494;84;98919;-87
2021/12/24 17:11:53;;;;;;;26.27;14.10;;;;;;;0.79;100.00;98725.75;3428950;84;99267;-86
2021/12/24 17:16:55;;;;;;;28.80;15.33;;;;;;;0.80;100.00;98731.38;3436004;84;32953;-85
2021/12/24 17:21:55;;;;;;;24.23;13.27;;;;;;;0.80;100.00;98721.91;3426023;84;99018;-85
2021/12/24 17:27:00;;;;;;;28.27;14.57;;;;;;;0.81;100.00;98726.73;3435664;84;99061;-86
2021/12/24 17:32:01;;;;;;;28.80;15.27;;;;;;;0.82;100.00;98733.73;3431519;84;99062;-87
2021/12/24 17:37:03;;;;;;;25.03;13.47;;;;;;;0.81;100.00;98742.98;3419182;84;98842;-85
2021/12/24 17:42:06;;;;;;;26.43;14.07;;;;;;;0.80;100.00;98753.04;3430214;84;99386;-86
2021/12/24 17:47:08;;;;;;;23.17;13.23;;;;;;;0.81;100.00;98761.38;3435083;84;28248;-87
2021/12/24 17:52:09;;;;;;;26.17;13.57;;;;;;;0.81;100.00;98764.64;3419532;84;98828;-87
2021/12/24 17:57:10;;;;;;;23.80;13.07;;;;;;;0.82;100.00;98771.65;3417804;85;98700;-86
2021/12/24 18:02:11;;;;;;;22.03;12.47;;;;;;;0.81;100.00;98779.52;3416986;85;99445;-88
2021/12/24 18:07:12;;;;;;;26.07;12.40;;;;;;;0.81;100.00;98783.59;3413413;85;98838;-89
2021/12/24 18:12:13;;;;;;;29.43;13.63;;;;;;;0.83;100.00;98793.52;3400586;85;99223;-87
2021/12/24 18:17:14;;;;;;;24.73;12.60;;;;;;;0.82;100.00;98795.42;3422584;85;32449;-89
2021/12/24 18:22:15;;;;;;;29.90;15.57;;;;;;;0.82;100.00;98812.27;3404019;84;99206;-87
2021/12/24 18:27:16;;;;;;;30.07;14.57;;;;;;;0.82;100.00;98823.09;3429914;85;99005;-86
2021/12/24 18:32:17;;;;;;;29.60;15.20;;;;;;;0.82;100.00;98827.92;3421487;85;99248;-86
2021/12/24 18:37:21;;;;;;;25.93;14.07;;;;;;;0.83;100.00;98847.67;3409978;85;98931;-86
2021/12/24 18:42:21;;;;;;;27.70;15.17;;;;;;;0.84;100.00;98841.91;3415784;85;98903;-87
2021/12/24 18:47:22;;;;;;;24.77;13.13;;;;;;;0.85;100.00;98858.92;3407489;85;32441;-89
2021/12/24 18:52:23;;;;;;;29.13;14.47;;;;;;;0.85;100.00;98894.13;3441354;83;98893;-87
2021/12/24 18:57:24;;;;;;;24.37;12.70;;;;;;;0.85;100.00;98894.13;3504253;82;98034;-90
2021/12/24 19:02:25;;;;;;;23.63;12.70;;;;;;;0.83;100.00;98905.30;3499673;82;99305;-87
2021/12/24 19:07:26;;;;;;;23.56;11.04;;;;;;;0.80;100.00;98924.97;3505307;82;98891;-88
2021/12/24 19:12:27;;;;;;;20.32;9.68;;;;;;;0.81;100.00;98944.13;3495380;82;99275;-89
2021/12/24 19:17:28;;;;;;;16.63;7.63;;;;;;;0.78;100.00;98951.59;3502913;82;26421;-90
2021/12/24 19:22:29;;;;;;;14.90;7.40;;;;;;;0.76;100.00;98966.61;3501452;83;98401;-90
2021/12/24 19:27:29;;;;;;;11.07;4.60;;;;;;;0.73;100.00;98988.97;3508239;82;98917;-90
2021/12/24 19:32:33;;;;;;;10.10;4.10;;;;;;;0.67;100.00;98997.90;3500111;82;98722;-89
2021/12/24 19:37:34;;;;;;;12.60;3.60;;;;;;;0.67;100.00;99016.08;3507807;82;99176;-88
2021/12/24 19:42:35;;;;;;;8.40;2.47;;;;;;;0.64;100.00;99035.70;3469715;84;99070;-88
2021/12/24 19:47:36;;;;;;;4.13;1.40;;;;;;;0.56;100.00;99042.84;3474779;84;98648;-88
2021/12/24 19:52:37;;;;;;;3.37;1.63;;;;;;;0.40;100.00;99059.58;3466165;82;98180;-88
2021/12/24 19:57:40;;;;;;;3.10;1.07;;;;;;;0.29;100.00;99074.72;3488382;82;98315;-88
2021/12/24 20:02:42;;;;;;;2.47;1.17;;;;;;;0.20;100.00;99092.22;3506227;82;98486;-88
2021/12/24 20:07:43;;;;;;;5.03;1.40;;;;;;;0.08;100.00;99105.77;3520329;82;98594;-88
2021/12/24 20:12:45;;;;;;;2.23;0.90;;;;;;;-0.03;100.00;99128.98;3509721;82;98483;-89
2021/12/24 20:17:53;;;;;;;3.00;0.80;;;;;;;-0.18;100.00;99132.94;3526552;82;98642;-87
2021/12/24 20:22:58;;;;;;;3.33;1.07;;;;;;;-0.32;100.00;99159.49;3509690;82;28335;-91
2021/12/24 20:27:57;;;;;;;3.53;1.00;;;;;;;-0.45;100.00;99170.84;3513300;82;98945;-90
2021/12/24 20:32:58;;;;;;;4.07;1.37;;;;;;;-0.52;100.00;99177.91;3532432;82;98540;-89
2021/12/24 20:38:00;;;;;;;5.57;1.60;;;;;;;-0.60;100.00;99180.92;3512436;82;98694;-88
2021/12/24 20:43:05;;;;;;;5.10;1.70;;;;;;;-0.73;100.00;99194.17;3476649;83;98923;-91
2021/12/24 20:48:06;;;;;;;5.13;1.30;;;;;;;-0.79;100.00;99202.81;3469429;83;99059;-90
2021/12/24 20:53:10;;;;;;;7.00;1.80;;;;;;;-0.81;100.00;99211.27;3472821;83;26460;-90
2021/12/24 20:58:13;;;;;;;13.30;3.87;;;;;;;-0.79;100.00;99225.77;3513531;82;98834;-91
2021/12/24 21:03:14;;;;;;;6.47;1.90;;;;;;;-0.81;100.00;99237.47;3498401;82;98560;-90
2021/12/24 21:08:16;;;;;;;6.70;2.90;;;;;;;-0.84;100.00;99255.67;3522693;82;99580;-90
2021/12/24 21:13:20;;;;;;;5.17;1.20;;;;;;;-0.86;100.00;99260.63;3512574;82;99337;-89
2021/12/24 21:18:23;;;;;;;4.50;1.60;;;;;;;-0.98;100.00;99289.72;3503646;82;99254;-90
2021/12/24 21:23:26;;;;;;;6.17;2.40;;;;;;;-1.07;100.00;99294.38;3452393;84;27527;-88
2021/12/24 21:28:27;;;;;;;6.30;2.27;;;;;;;-1.14;100.00;99309.50;3460446;84;98586;-89
2021/12/24 21:33:28;;;;;;;9.83;2.77;;;;;;;-1.19;100.00;99321.84;3506241;82;98762;-88
2021/12/24 21:38:37;;;;;;;5.60;1.90;;;;;;;-1.24;99.90;99330.12;3515890;82;98922;-89
2021/12/24 21:43:40;;;;;;;7.17;2.00;;;;;;;-1.26;100.00;99343.16;3523734;82;98716;-88
2021/12/24 21:48:41;;;;;;;8.73;1.77;;;;;;;-1.30;99.82;99354.36;3508786;82;99370;-88
2021/12/24 21:53:43;;;;;;;8.70;2.60;;;;;;;-1.42;98.89;99367.18;3499717;82;99104;-89
2021/12/24 21:58:48;;;;;;;6.90;2.22;;;;;;;-1.49;99.42;99374.22;3466175;83;98650;-89
2021/12/24 22:03:54;;;;;;;6.17;1.82;;;;;;;-1.56;98.94;99390.09;3472552;83;98894;-88
2021/12/24 22:09:01;;;;;;;10.23;1.90;;;;;;;-1.56;99.62;99398.98;3468081;83;98763;-88
2021/12/24 22:14:08;;;;;;;6.53;1.90;;;;;;;-1.63;98.56;99416.77;3467936;83;98927;-88
2021/12/24 22:19:09;;;;;;;6.97;2.10;;;;;;;-1.65;98.54;99422.48;3450987;84;98848;-89
2021/12/24 22:24:14;;;;;;;6.20;2.20;;;;;;;-1.65;99.64;99435.97;3468096;83;98560;-88
2021/12/24 22:29:20;;;;;;;8.07;1.97;;;;;;;-1.68;98.69;99452.00;3469212;83;98482;-89
2021/12/24 22:34:23;;;;;;;9.35;3.35;;;;;;;-1.69;99.13;99464.69;3475086;83;98763;-89
2021/12/24 22:39:29;;;;;;;11.90;4.67;;;;;;;-1.68;99.22;99468.98;3468154;83;98247;-89
2021/12/24 22:44:30;;;;;;;13.13;4.70;;;;;;;-1.72;98.17;99486.11;3475321;83;99055;-88
2021/12/24 22:49:31;;;;;;;9.77;3.73;;;;;;;-1.75;98.81;99496.20;3471378;83;98725;-89
2021/12/24 22:54:35;;;;;;;11.53;4.60;;;;;;;-1.76;98.89;99512.15;3506231;82;99271;-89
2021/12/24 22:59:36;;;;;;;15.43;6.50;;;;;;;-1.74;99.26;99520.16;3505155;82;99205;-89
2021/12/24 23:04:37;;;;;;;16.37;6.57;;;;;;;-1.73;99.36;99531.72;3529247;82;27465;-89
2021/12/24 23:09:39;;;;;;;11.55;3.62;;;;;;;-1.83;98.72;99538.23;3521343;82;98883;-88
2021/12/24 23:14:43;;;;;;;10.98;3.08;;;;;;;-1.89;98.67;99538.70;3527723;82;99199;-89
2021/12/24 23:19:48;;;;;;;8.08;2.92;;;;;;;-1.94;98.53;99549.09;3524997;82;99259;-89
2021/12/24 23:24:47;;;;;;;12.87;5.67;;;;;;;-1.97;98.87;99554.33;3526961;82;98705;-89
2021/12/24 23:29:48;;;;;;;8.80;3.27;;;;;;;-2.03;98.63;99565.80;3520706;82;98864;-90
2021/12/24 23:34:49;;;;;;;11.43;3.53;;;;;;;-2.11;98.51;99574.69;3528023;82;26478;-88
2021/12/24 23:39:50;;;;;;;9.00;3.07;;;;;;;-2.17;98.41;99578.64;3520831;82;99354;-89
2021/12/24 23:44:57;;;;;;;12.03;3.03;;;;;;;-2.23;98.29;99582.59;3528910;82;99502;-89
2021/12/24 23:49:54;;;;;;;10.93;3.13;;;;;;;-2.31;98.32;99594.12;3513698;82;99616;-88
2021/12/24 23:54:54;;;;;;;11.33;3.63;;;;;;;-2.38;98.37;99602.41;3539277;82;98902;-88
2021/12/24 23:59:55;;;;;;;8.50;2.77;;;;;;;-2.46;98.30;99612.05;3539139;82;98910;-89
